sensor_id;sensor_type;location;lat;lon;timestamp;temperature;humidity
10911;DHT22;5508;49.150;11.030;2022-11-12T00:01:02;0.80;99.90
10911;DHT22;5508;49.150;11.030;2022-11-12T00:04:02;0.80;99.90
10911;DHT22;5508;49.150;11.030;2022-11-12T00:07:03;0.70;99.90
10911;DHT22;5508;49.150;11.030;2022-11-12T00:10:04;0.70;99.90
10911;DHT22;5508;49.150;11.030;2022-11-12T00:13:05;0.70;99.90
10911;DHT22;5508;49.150;11.030;2022-11-12T00:16:06;0.80;99.90
10911;DHT22;5508;49.150;11.030;2022-11-12T00:19:07;0.70;99.90
10911;DHT22;5508;49.150;11.030;2022-11-12T00:22:07;0.80;99.90
10911;DHT22;5508;49.150;11.030;2022-11-12T00:25:08;0.80;99.90
10911;DHT22;5508;49.150;11.030;2022-11-12T00:28:09;0.70;99.90
10911;DHT22;5508;49.150;11.030;2022-11-12T00:31:10;0.70;99.90
10911;DHT22;5508;49.150;11.030;2022-11-12T00:34:11;0.70;99.90
10911;DHT22;5508;49.150;11.030;2022-11-12T00:37:12;0.70;99.90
10911;DHT22;5508;49.150;11.030;2022-11-12T00:40:12;0.70;99.90
10911;DHT22;5508;49.150;11.030;2022-11-12T00:43:13;0.70;99.90
10911;DHT22;5508;49.150;11.030;2022-11-12T00:46:13;0.70;99.90
10911;DHT22;5508;49.150;11.030;2022-11-12T00:49:14;0.80;99.90
10911;DHT22;5508;49.150;11.030;2022-11-12T00:52:15;0.80;99.90
10911;DHT22;5508;49.150;11.030;2022-11-12T00:55:15;0.90;99.90
10911;DHT22;5508;49.150;11.030;2022-11-12T00:58:16;0.90;99.90
10911;DHT22;5508;49.150;11.030;2022-11-12T01:01:16;1.00;99.90
10911;DHT22;5508;49.150;11.030;2022-11-12T01:04:17;1.10;99.90
10911;DHT22;5508;49.150;11.030;2022-11-12T01:07:18;1.00;99.90
10911;DHT22;5508;49.150;11.030;2022-11-12T01:10:18;1.00;99.90
10911;DHT22;5508;49.150;11.030;2022-11-12T01:13:19;1.10;99.90
10911;DHT22;5508;49.150;11.030;2022-11-12T01:16:22;1.20;99.90
10911;DHT22;5508;49.150;11.030;2022-11-12T01:19:23;1.20;99.90
10911;DHT22;5508;49.150;11.030;2022-11-12T01:22:24;1.20;99.90
10911;DHT22;5508;49.150;11.030;2022-11-12T01:25:24;1.30;99.90
10911;DHT22;5508;49.150;11.030;2022-11-12T01:28:25;1.30;99.90
10911;DHT22;5508;49.150;11.030;2022-11-12T01:31:31;1.20;99.90
10911;DHT22;5508;49.150;11.030;2022-11-12T01:34:32;1.20;99.90
10911;DHT22;5508;49.150;11.030;2022-11-12T01:37:33;1.30;99.90
10911;DHT22;5508;49.150;11.030;2022-11-12T01:40:33;1.30;99.90
10911;DHT22;5508;49.150;11.030;2022-11-12T01:43:34;1.40;99.90
10911;DHT22;5508;49.150;11.030;2022-11-12T01:53:10;1.40;99.90
10911;DHT22;5508;49.150;11.030;2022-11-12T01:56:13;1.50;99.90
10911;DHT22;5508;49.150;11.030;2022-11-12T01:59:27;1.40;99.90
10911;DHT22;5508;49.150;11.030;2022-11-12T02:02:29;1.40;99.90
10911;DHT22;5508;49.150;11.030;2022-11-12T02:05:30;1.40;99.90
10911;DHT22;5508;49.150;11.030;2022-11-12T02:08:33;1.50;99.90
10911;DHT22;5508;49.150;11.030;2022-11-12T02:11:34;1.50;99.90
10911;DHT22;5508;49.150;11.030;2022-11-12T02:14:35;1.50;99.90
10911;DHT22;5508;49.150;11.030;2022-11-12T02:17:35;1.50;99.90
10911;DHT22;5508;49.150;11.030;2022-11-12T02:20:37;1.60;99.90
10911;DHT22;5508;49.150;11.030;2022-11-12T02:23:38;1.60;99.90
10911;DHT22;5508;49.150;11.030;2022-11-12T02:26:50;1.70;99.90
10911;DHT22;5508;49.150;11.030;2022-11-12T02:29:52;1.70;99.90
10911;DHT22;5508;49.150;11.030;2022-11-12T02:32:53;1.70;99.90
10911;DHT22;5508;49.150;11.030;2022-11-12T02:35:53;1.70;99.90
10911;DHT22;5508;49.150;11.030;2022-11-12T02:38:54;1.80;99.90
10911;DHT22;5508;49.150;11.030;2022-11-12T02:41:55;1.80;99.90
10911;DHT22;5508;49.150;11.030;2022-11-12T02:44:56;1.80;99.90
10911;DHT22;5508;49.150;11.030;2022-11-12T02:47:57;1.80;99.90
10911;DHT22;5508;49.150;11.030;2022-11-12T02:50:57;1.80;99.90
10911;DHT22;5508;49.150;11.030;2022-11-12T02:53:58;1.80;99.90
10911;DHT22;5508;49.150;11.030;2022-11-12T02:56:58;1.80;99.90
10911;DHT22;5508;49.150;11.030;2022-11-12T02:59:59;1.80;99.90
10911;DHT22;5508;49.150;11.030;2022-11-12T03:02:59;1.80;99.90
10911;DHT22;5508;49.150;11.030;2022-11-12T03:06:01;1.70;99.90
10911;DHT22;5508;49.150;11.030;2022-11-12T03:09:01;1.60;99.90
10911;DHT22;5508;49.150;11.030;2022-11-12T03:12:02;1.60;99.90
10911;DHT22;5508;49.150;11.030;2022-11-12T03:15:03;1.50;99.90
10911;DHT22;5508;49.150;11.030;2022-11-12T03:18:04;1.50;99.90
10911;DHT22;5508;49.150;11.030;2022-11-12T03:21:05;1.40;99.90
10911;DHT22;5508;49.150;11.030;2022-11-12T03:24:06;1.40;99.90
10911;DHT22;5508;49.150;11.030;2022-11-12T03:27:06;1.30;99.90
10911;DHT22;5508;49.150;11.030;2022-11-12T03:30:07;1.30;99.90
10911;DHT22;5508;49.150;11.030;2022-11-12T03:33:10;1.30;99.90
10911;DHT22;5508;49.150;11.030;2022-11-12T03:36:11;1.20;99.90
10911;DHT22;5508;49.150;11.030;2022-11-12T03:39:12;1.10;99.90
10911;DHT22;5508;49.150;11.030;2022-11-12T03:42:12;1.10;99.90
10911;DHT22;5508;49.150;11.030;2022-11-12T03:45:14;1.00;99.90
10911;DHT22;5508;49.150;11.030;2022-11-12T03:48:15;1.00;99.90
10911;DHT22;5508;49.150;11.030;2022-11-12T03:51:15;1.00;99.90
10911;DHT22;5508;49.150;11.030;2022-11-12T03:54:17;1.10;99.90
10911;DHT22;5508;49.150;11.030;2022-11-12T03:57:19;1.10;99.90
10911;DHT22;5508;49.150;11.030;2022-11-12T04:00:21;1.10;99.90
10911;DHT22;5508;49.150;11.030;2022-11-12T04:03:22;1.10;99.90
10911;DHT22;5508;49.150;11.030;2022-11-12T04:06:23;1.10;99.90
10911;DHT22;5508;49.150;11.030;2022-11-12T04:09:42;1.10;99.90
10911;DHT22;5508;49.150;11.030;2022-11-12T04:12:43;1.00;99.90
10911;DHT22;5508;49.150;11.030;2022-11-12T04:19:22;1.10;99.90
10911;DHT22;5508;49.150;11.030;2022-11-12T04:22:42;1.10;99.90
10911;DHT22;5508;49.150;11.030;2022-11-12T04:25:43;1.20;99.90
10911;DHT22;5508;49.150;11.030;2022-11-12T04:29:02;1.10;99.90
10911;DHT22;5508;49.150;11.030;2022-11-12T04:32:21;0.90;99.90
10911;DHT22;5508;49.150;11.030;2022-11-12T04:35:25;0.80;99.90
10911;DHT22;5508;49.150;11.030;2022-11-12T04:38:25;0.70;99.90
10911;DHT22;5508;49.150;11.030;2022-11-12T04:41:26;0.60;99.90
10911;DHT22;5508;49.150;11.030;2022-11-12T04:44:45;0.60;99.90
10911;DHT22;5508;49.150;11.030;2022-11-12T04:48:04;0.50;99.90
10911;DHT22;5508;49.150;11.030;2022-11-12T04:51:05;0.40;99.90
10911;DHT22;5508;49.150;11.030;2022-11-12T04:54:25;0.40;99.90
10911;DHT22;5508;49.150;11.030;2022-11-12T04:57:26;0.30;99.90
10911;DHT22;5508;49.150;11.030;2022-11-12T05:00:27;0.30;99.90
10911;DHT22;5508;49.150;11.030;2022-11-12T05:03:28;0.30;99.90
10911;DHT22;5508;49.150;11.030;2022-11-12T05:06:29;0.20;99.90
10911;DHT22;5508;49.150;11.030;2022-11-12T05:09:48;0.20;99.90
10911;DHT22;5508;49.150;11.030;2022-11-12T05:12:48;0.30;99.90
10911;DHT22;5508;49.150;11.030;2022-11-12T05:15:49;0.20;99.90
10911;DHT22;5508;49.150;11.030;2022-11-12T05:18:49;0.20;99.90
10911;DHT22;5508;49.150;11.030;2022-11-12T05:21:50;0.10;99.90
10911;DHT22;5508;49.150;11.030;2022-11-12T05:25:07;0.20;99.90
10911;DHT22;5508;49.150;11.030;2022-11-12T05:28:08;0.10;99.90
10911;DHT22;5508;49.150;11.030;2022-11-12T05:31:08;0.10;99.90
10911;DHT22;5508;49.150;11.030;2022-11-12T05:34:09;0.10;99.90
10911;DHT22;5508;49.150;11.030;2022-11-12T05:37:11;0.10;99.90
10911;DHT22;5508;49.150;11.030;2022-11-12T05:40:12;0.00;99.90
10911;DHT22;5508;49.150;11.030;2022-11-12T05:43:13;-0.10;99.90
10911;DHT22;5508;49.150;11.030;2022-11-12T05:46:13;-0.10;99.90
10911;DHT22;5508;49.150;11.030;2022-11-12T05:49:14;-0.10;99.90
10911;DHT22;5508;49.150;11.030;2022-11-12T05:52:15;-0.20;99.90
10911;DHT22;5508;49.150;11.030;2022-11-12T05:55:16;-0.30;99.90
10911;DHT22;5508;49.150;11.030;2022-11-12T05:58:16;-0.30;99.90
10911;DHT22;5508;49.150;11.030;2022-11-12T06:01:17;-0.40;99.90
10911;DHT22;5508;49.150;11.030;2022-11-12T06:04:17;-0.40;99.90
10911;DHT22;5508;49.150;11.030;2022-11-12T06:07:18;-0.40;99.90
10911;DHT22;5508;49.150;11.030;2022-11-12T06:10:18;-0.50;99.90
10911;DHT22;5508;49.150;11.030;2022-11-12T06:13:23;-0.50;99.90
10911;DHT22;5508;49.150;11.030;2022-11-12T06:16:24;-0.50;99.90
10911;DHT22;5508;49.150;11.030;2022-11-12T06:19:25;-0.60;99.90
10911;DHT22;5508;49.150;11.030;2022-11-12T06:22:25;-0.60;99.90
10911;DHT22;5508;49.150;11.030;2022-11-12T06:25:26;-0.60;99.90
10911;DHT22;5508;49.150;11.030;2022-11-12T06:28:27;-0.60;99.90
10911;DHT22;5508;49.150;11.030;2022-11-12T06:31:28;-0.70;99.90
10911;DHT22;5508;49.150;11.030;2022-11-12T06:34:28;-0.60;99.90
10911;DHT22;5508;49.150;11.030;2022-11-12T06:37:29;-0.60;99.90
10911;DHT22;5508;49.150;11.030;2022-11-12T06:40:29;-0.50;99.90
10911;DHT22;5508;49.150;11.030;2022-11-12T06:43:32;-0.60;99.90
10911;DHT22;5508;49.150;11.030;2022-11-12T06:46:32;-0.50;99.90
10911;DHT22;5508;49.150;11.030;2022-11-12T06:49:33;-0.50;99.90
10911;DHT22;5508;49.150;11.030;2022-11-12T06:52:33;-0.40;99.90
10911;DHT22;5508;49.150;11.030;2022-11-12T06:55:34;-0.40;99.90
10911;DHT22;5508;49.150;11.030;2022-11-12T06:58:35;-0.40;99.90
10911;DHT22;5508;49.150;11.030;2022-11-12T07:01:36;-0.30;99.90
10911;DHT22;5508;49.150;11.030;2022-11-12T07:04:36;-0.20;99.90
10911;DHT22;5508;49.150;11.030;2022-11-12T07:07:37;-0.20;99.90
10911;DHT22;5508;49.150;11.030;2022-11-12T07:10:37;-0.10;99.90
10911;DHT22;5508;49.150;11.030;2022-11-12T07:13:38;0.00;99.90
10911;DHT22;5508;49.150;11.030;2022-11-12T07:16:39;0.10;99.90
10911;DHT22;5508;49.150;11.030;2022-11-12T07:19:40;0.30;99.90
10911;DHT22;5508;49.150;11.030;2022-11-12T07:22:40;0.30;99.90
10911;DHT22;5508;49.150;11.030;2022-11-12T07:25:41;0.50;99.90
10911;DHT22;5508;49.150;11.030;2022-11-12T07:28:42;0.60;99.90
10911;DHT22;5508;49.150;11.030;2022-11-12T07:31:44;0.60;99.90
10911;DHT22;5508;49.150;11.030;2022-11-12T07:34:44;0.70;99.90
10911;DHT22;5508;49.150;11.030;2022-11-12T07:37:45;0.90;99.90
10911;DHT22;5508;49.150;11.030;2022-11-12T07:40:45;1.00;99.90
10911;DHT22;5508;49.150;11.030;2022-11-12T07:43:48;1.10;99.90
10911;DHT22;5508;49.150;11.030;2022-11-12T07:46:48;1.30;99.90
10911;DHT22;5508;49.150;11.030;2022-11-12T07:49:49;1.40;99.90
10911;DHT22;5508;49.150;11.030;2022-11-12T07:52:49;1.40;99.90
10911;DHT22;5508;49.150;11.030;2022-11-12T07:55:59;1.60;99.90
10911;DHT22;5508;49.150;11.030;2022-11-12T07:59:00;1.70;99.90
10911;DHT22;5508;49.150;11.030;2022-11-12T08:02:00;1.70;99.90
10911;DHT22;5508;49.150;11.030;2022-11-12T08:05:01;1.70;99.90
10911;DHT22;5508;49.150;11.030;2022-11-12T08:08:01;1.80;99.90
10911;DHT22;5508;49.150;11.030;2022-11-12T08:11:02;1.90;99.90
10911;DHT22;5508;49.150;11.030;2022-11-12T08:14:03;2.10;99.90
10911;DHT22;5508;49.150;11.030;2022-11-12T08:17:03;2.20;99.90
10911;DHT22;5508;49.150;11.030;2022-11-12T08:20:05;2.30;99.90
10911;DHT22;5508;49.150;11.030;2022-11-12T08:23:05;2.40;99.90
10911;DHT22;5508;49.150;11.030;2022-11-12T08:26:09;2.50;99.90
10911;DHT22;5508;49.150;11.030;2022-11-12T08:29:10;2.70;99.90
10911;DHT22;5508;49.150;11.030;2022-11-12T08:32:10;2.90;99.90
10911;DHT22;5508;49.150;11.030;2022-11-12T08:35:11;3.00;99.90
10911;DHT22;5508;49.150;11.030;2022-11-12T08:38:12;2.90;99.90
10911;DHT22;5508;49.150;11.030;2022-11-12T08:41:13;3.10;99.90
10911;DHT22;5508;49.150;11.030;2022-11-12T08:44:14;3.30;99.90
10911;DHT22;5508;49.150;11.030;2022-11-12T08:47:15;3.50;99.90
10911;DHT22;5508;49.150;11.030;2022-11-12T08:50:15;3.60;99.90
10911;DHT22;5508;49.150;11.030;2022-11-12T08:53:16;3.80;99.90
10911;DHT22;5508;49.150;11.030;2022-11-12T08:56:17;3.80;99.90
10911;DHT22;5508;49.150;11.030;2022-11-12T08:59:17;3.90;99.90
10911;DHT22;5508;49.150;11.030;2022-11-12T09:02:18;4.10;99.90
10911;DHT22;5508;49.150;11.030;2022-11-12T09:05:19;4.30;99.90
10911;DHT22;5508;49.150;11.030;2022-11-12T09:08:22;4.40;99.90
10911;DHT22;5508;49.150;11.030;2022-11-12T09:11:23;4.40;99.90
10911;DHT22;5508;49.150;11.030;2022-11-12T09:14:23;4.40;99.90
10911;DHT22;5508;49.150;11.030;2022-11-12T09:17:25;4.40;99.90
10911;DHT22;5508;49.150;11.030;2022-11-12T09:20:27;4.20;99.90
10911;DHT22;5508;49.150;11.030;2022-11-12T09:23:27;4.20;99.90
10911;DHT22;5508;49.150;11.030;2022-11-12T09:26:28;4.30;99.90
10911;DHT22;5508;49.150;11.030;2022-11-12T09:29:29;4.50;99.90
10911;DHT22;5508;49.150;11.030;2022-11-12T09:32:29;4.60;99.90
10911;DHT22;5508;49.150;11.030;2022-11-12T09:35:30;4.70;99.90
10911;DHT22;5508;49.150;11.030;2022-11-12T09:38:31;4.80;99.90
10911;DHT22;5508;49.150;11.030;2022-11-12T09:41:35;4.90;99.90
10911;DHT22;5508;49.150;11.030;2022-11-12T09:44:38;5.00;99.90
10911;DHT22;5508;49.150;11.030;2022-11-12T09:47:45;5.20;99.90
10911;DHT22;5508;49.150;11.030;2022-11-12T09:50:58;5.30;99.90
10911;DHT22;5508;49.150;11.030;2022-11-12T09:54:22;5.60;99.90
10911;DHT22;5508;49.150;11.030;2022-11-12T09:57:23;5.80;99.90
10911;DHT22;5508;49.150;11.030;2022-11-12T10:00:24;5.90;99.90
10911;DHT22;5508;49.150;11.030;2022-11-12T10:03:39;5.80;99.90
10911;DHT22;5508;49.150;11.030;2022-11-12T10:06:54;6.00;99.90
10911;DHT22;5508;49.150;11.030;2022-11-12T10:10:16;6.10;99.90
10911;DHT22;5508;49.150;11.030;2022-11-12T10:13:41;6.30;99.90
10911;DHT22;5508;49.150;11.030;2022-11-12T10:16:58;6.60;99.90
10911;DHT22;5508;49.150;11.030;2022-11-12T10:20:29;6.60;99.90
10911;DHT22;5508;49.150;11.030;2022-11-12T10:23:40;6.50;99.90
10911;DHT22;5508;49.150;11.030;2022-11-12T10:26:41;6.70;99.90
10911;DHT22;5508;49.150;11.030;2022-11-12T10:29:54;6.70;99.90
10911;DHT22;5508;49.150;11.030;2022-11-12T10:32:56;6.90;99.90
10911;DHT22;5508;49.150;11.030;2022-11-12T10:36:30;7.20;99.90
10911;DHT22;5508;49.150;11.030;2022-11-12T10:39:40;7.50;99.90
10911;DHT22;5508;49.150;11.030;2022-11-12T10:43:41;7.60;99.90
10911;DHT22;5508;49.150;11.030;2022-11-12T10:46:28;7.80;99.90
10911;DHT22;5508;49.150;11.030;2022-11-12T10:49:28;7.70;99.90
10911;DHT22;5508;49.150;11.030;2022-11-12T10:52:29;7.90;99.90
10911;DHT22;5508;49.150;11.030;2022-11-12T10:55:33;8.20;99.90
10911;DHT22;5508;49.150;11.030;2022-11-12T10:58:34;8.00;99.90
10911;DHT22;5508;49.150;11.030;2022-11-12T11:01:35;7.90;99.90
10911;DHT22;5508;49.150;11.030;2022-11-12T11:04:37;8.30;99.90
10911;DHT22;5508;49.150;11.030;2022-11-12T11:07:38;8.40;99.70
10911;DHT22;5508;49.150;11.030;2022-11-12T11:10:48;8.50;99.90
10911;DHT22;5508;49.150;11.030;2022-11-12T11:13:51;8.70;99.40
10911;DHT22;5508;49.150;11.030;2022-11-12T11:16:58;9.00;97.30
10911;DHT22;5508;49.150;11.030;2022-11-12T11:20:00;9.10;96.00
10911;DHT22;5508;49.150;11.030;2022-11-12T11:40:26;9.60;96.40
10911;DHT22;5508;49.150;11.030;2022-11-12T11:47:09;9.60;92.80
10911;DHT22;5508;49.150;11.030;2022-11-12T11:50:27;9.40;97.60
10911;DHT22;5508;49.150;11.030;2022-11-12T11:53:45;9.40;97.60
10911;DHT22;5508;49.150;11.030;2022-11-12T11:56:51;9.60;95.70
10911;DHT22;5508;49.150;11.030;2022-11-12T12:00:21;9.60;97.90
10911;DHT22;5508;49.150;11.030;2022-11-12T12:10:44;10.00;96.60
10911;DHT22;5508;49.150;11.030;2022-11-12T12:23:32;10.20;95.30
10911;DHT22;5508;49.150;11.030;2022-11-12T12:26:43;10.40;94.20
10911;DHT22;5508;49.150;11.030;2022-11-12T12:29:49;10.50;95.20
10911;DHT22;5508;49.150;11.030;2022-11-12T12:32:58;10.50;95.20
10911;DHT22;5508;49.150;11.030;2022-11-12T12:36:04;10.50;92.70
10911;DHT22;5508;49.150;11.030;2022-11-12T12:39:13;10.50;92.60
10911;DHT22;5508;49.150;11.030;2022-11-12T12:42:20;10.40;93.10
10911;DHT22;5508;49.150;11.030;2022-11-12T12:45:39;10.40;94.20
10911;DHT22;5508;49.150;11.030;2022-11-12T12:48:42;10.30;95.80
10911;DHT22;5508;49.150;11.030;2022-11-12T12:51:44;10.30;95.70
10911;DHT22;5508;49.150;11.030;2022-11-12T12:57:57;10.40;96.50
10911;DHT22;5508;49.150;11.030;2022-11-12T13:01:02;10.40;96.20
10911;DHT22;5508;49.150;11.030;2022-11-12T13:04:08;10.30;96.30
10911;DHT22;5508;49.150;11.030;2022-11-12T13:07:08;10.40;95.60
10911;DHT22;5508;49.150;11.030;2022-11-12T13:13:40;10.30;96.20
10911;DHT22;5508;49.150;11.030;2022-11-12T13:16:55;10.30;95.50
10911;DHT22;5508;49.150;11.030;2022-11-12T13:22:57;10.20;96.90
10911;DHT22;5508;49.150;11.030;2022-11-12T13:35:45;10.30;97.70
10911;DHT22;5508;49.150;11.030;2022-11-12T13:38:45;10.20;97.50
10911;DHT22;5508;49.150;11.030;2022-11-12T13:41:57;10.20;98.00
10911;DHT22;5508;49.150;11.030;2022-11-12T13:45:19;10.20;98.60
10911;DHT22;5508;49.150;11.030;2022-11-12T13:54:35;10.10;99.90
10911;DHT22;5508;49.150;11.030;2022-11-12T13:57:36;10.00;99.90
10911;DHT22;5508;49.150;11.030;2022-11-12T14:00:36;10.00;99.90
10911;DHT22;5508;49.150;11.030;2022-11-12T14:03:43;9.90;99.90
10911;DHT22;5508;49.150;11.030;2022-11-12T14:06:51;9.90;99.90
10911;DHT22;5508;49.150;11.030;2022-11-12T14:20:39;9.70;99.90
10911;DHT22;5508;49.150;11.030;2022-11-12T14:23:43;9.70;99.90
10911;DHT22;5508;49.150;11.030;2022-11-12T14:26:45;9.60;99.90
10911;DHT22;5508;49.150;11.030;2022-11-12T14:29:45;9.50;99.90
10911;DHT22;5508;49.150;11.030;2022-11-12T14:32:53;9.50;99.90
10911;DHT22;5508;49.150;11.030;2022-11-12T14:36:05;9.30;99.90
10911;DHT22;5508;49.150;11.030;2022-11-12T14:39:09;9.30;99.90
10911;DHT22;5508;49.150;11.030;2022-11-12T14:42:12;9.20;99.90
10911;DHT22;5508;49.150;11.030;2022-11-12T14:45:16;9.10;99.90
10911;DHT22;5508;49.150;11.030;2022-11-12T14:48:17;8.90;99.90
10911;DHT22;5508;49.150;11.030;2022-11-12T14:51:18;8.80;99.90
10911;DHT22;5508;49.150;11.030;2022-11-12T14:54:32;8.70;99.90
10911;DHT22;5508;49.150;11.030;2022-11-12T14:57:34;8.60;99.90
10911;DHT22;5508;49.150;11.030;2022-11-12T15:00:41;8.50;99.90
10911;DHT22;5508;49.150;11.030;2022-11-12T15:03:42;8.40;99.90
10911;DHT22;5508;49.150;11.030;2022-11-12T15:06:54;8.30;99.90
10911;DHT22;5508;49.150;11.030;2022-11-12T15:09:55;8.20;99.90
10911;DHT22;5508;49.150;11.030;2022-11-12T15:13:10;8.10;99.90
10911;DHT22;5508;49.150;11.030;2022-11-12T15:16:44;7.90;99.90
10911;DHT22;5508;49.150;11.030;2022-11-12T15:19:45;7.80;99.90
10911;DHT22;5508;49.150;11.030;2022-11-12T15:22:52;7.70;99.90
10911;DHT22;5508;49.150;11.030;2022-11-12T15:25:58;7.50;99.90
10911;DHT22;5508;49.150;11.030;2022-11-12T15:29:22;7.40;99.90
10911;DHT22;5508;49.150;11.030;2022-11-12T15:38:33;7.00;99.90
10911;DHT22;5508;49.150;11.030;2022-11-12T15:41:38;6.80;99.90
10911;DHT22;5508;49.150;11.030;2022-11-12T15:44:39;6.70;99.90
10911;DHT22;5508;49.150;11.030;2022-11-12T15:47:39;6.60;99.90
10911;DHT22;5508;49.150;11.030;2022-11-12T15:50:40;6.50;99.90
10911;DHT22;5508;49.150;11.030;2022-11-12T15:53:41;6.30;99.90
10911;DHT22;5508;49.150;11.030;2022-11-12T15:56:41;6.20;99.90
10911;DHT22;5508;49.150;11.030;2022-11-12T15:59:42;6.10;99.90
10911;DHT22;5508;49.150;11.030;2022-11-12T16:02:47;6.00;99.90
10911;DHT22;5508;49.150;11.030;2022-11-12T16:05:48;5.90;99.90
10911;DHT22;5508;49.150;11.030;2022-11-12T16:08:49;5.80;99.90
10911;DHT22;5508;49.150;11.030;2022-11-12T16:11:50;5.70;99.90
10911;DHT22;5508;49.150;11.030;2022-11-12T16:14:51;5.70;99.90
10911;DHT22;5508;49.150;11.030;2022-11-12T16:17:53;5.60;99.90
10911;DHT22;5508;49.150;11.030;2022-11-12T16:20:55;5.50;99.90
10911;DHT22;5508;49.150;11.030;2022-11-12T16:23:55;5.40;99.90
10911;DHT22;5508;49.150;11.030;2022-11-12T16:26:56;5.30;99.90
10911;DHT22;5508;49.150;11.030;2022-11-12T16:29:57;5.30;99.90
10911;DHT22;5508;49.150;11.030;2022-11-12T16:32:58;5.20;99.90
10911;DHT22;5508;49.150;11.030;2022-11-12T16:35:59;5.10;99.90
10911;DHT22;5508;49.150;11.030;2022-11-12T16:39:00;5.00;99.90
10911;DHT22;5508;49.150;11.030;2022-11-12T16:42:00;4.90;99.90
10911;DHT22;5508;49.150;11.030;2022-11-12T16:45:01;4.80;99.90
10911;DHT22;5508;49.150;11.030;2022-11-12T16:48:15;4.80;99.90
10911;DHT22;5508;49.150;11.030;2022-11-12T16:51:17;4.70;99.90
10911;DHT22;5508;49.150;11.030;2022-11-12T16:54:18;4.60;99.90
10911;DHT22;5508;49.150;11.030;2022-11-12T16:57:19;4.40;99.90
10911;DHT22;5508;49.150;11.030;2022-11-12T17:00:20;4.40;99.90
10911;DHT22;5508;49.150;11.030;2022-11-12T17:03:20;4.30;99.90
10911;DHT22;5508;49.150;11.030;2022-11-12T17:06:23;4.20;99.90
10911;DHT22;5508;49.150;11.030;2022-11-12T17:09:23;4.20;99.90
10911;DHT22;5508;49.150;11.030;2022-11-12T17:12:24;4.10;99.90
10911;DHT22;5508;49.150;11.030;2022-11-12T17:15:25;4.10;99.90
10911;DHT22;5508;49.150;11.030;2022-11-12T17:18:25;4.10;99.90
10911;DHT22;5508;49.150;11.030;2022-11-12T17:21:26;4.10;99.90
10911;DHT22;5508;49.150;11.030;2022-11-12T17:24:27;4.00;99.90
10911;DHT22;5508;49.150;11.030;2022-11-12T17:27:28;4.00;99.90
10911;DHT22;5508;49.150;11.030;2022-11-12T17:30:28;4.00;99.90
10911;DHT22;5508;49.150;11.030;2022-11-12T17:33:29;3.90;99.90
10911;DHT22;5508;49.150;11.030;2022-11-12T17:36:30;3.80;99.90
10911;DHT22;5508;49.150;11.030;2022-11-12T17:39:31;3.70;99.90
10911;DHT22;5508;49.150;11.030;2022-11-12T17:42:31;3.70;99.90
10911;DHT22;5508;49.150;11.030;2022-11-12T17:45:32;3.60;99.90
10911;DHT22;5508;49.150;11.030;2022-11-12T17:48:34;3.50;99.90
10911;DHT22;5508;49.150;11.030;2022-11-12T17:51:36;3.50;99.90
10911;DHT22;5508;49.150;11.030;2022-11-12T17:54:36;3.40;99.90
10911;DHT22;5508;49.150;11.030;2022-11-12T17:57:37;3.40;99.90
10911;DHT22;5508;49.150;11.030;2022-11-12T18:00:38;3.30;99.90
10911;DHT22;5508;49.150;11.030;2022-11-12T18:03:40;3.20;99.90
10911;DHT22;5508;49.150;11.030;2022-11-12T18:06:41;3.10;99.90
10911;DHT22;5508;49.150;11.030;2022-11-12T18:09:42;3.10;99.90
10911;DHT22;5508;49.150;11.030;2022-11-12T18:12:42;3.00;99.90
10911;DHT22;5508;49.150;11.030;2022-11-12T18:15:43;2.90;99.90
10911;DHT22;5508;49.150;11.030;2022-11-12T18:18:44;2.90;99.90
10911;DHT22;5508;49.150;11.030;2022-11-12T18:21:44;2.90;99.90
10911;DHT22;5508;49.150;11.030;2022-11-12T18:24:48;2.90;99.90
10911;DHT22;5508;49.150;11.030;2022-11-12T18:27:49;2.90;99.90
10911;DHT22;5508;49.150;11.030;2022-11-12T18:30:49;2.90;99.90
10911;DHT22;5508;49.150;11.030;2022-11-12T18:33:50;2.90;99.90
10911;DHT22;5508;49.150;11.030;2022-11-12T18:36:51;2.90;99.90
10911;DHT22;5508;49.150;11.030;2022-11-12T18:39:52;2.80;99.90
10911;DHT22;5508;49.150;11.030;2022-11-12T18:42:52;2.70;99.90
10911;DHT22;5508;49.150;11.030;2022-11-12T18:45:54;2.60;99.90
10911;DHT22;5508;49.150;11.030;2022-11-12T18:48:55;2.60;99.90
10911;DHT22;5508;49.150;11.030;2022-11-12T18:51:55;2.50;99.90
10911;DHT22;5508;49.150;11.030;2022-11-12T18:54:56;2.40;99.90
10911;DHT22;5508;49.150;11.030;2022-11-12T18:57:56;2.40;99.90
10911;DHT22;5508;49.150;11.030;2022-11-12T19:01:05;2.40;99.90
10911;DHT22;5508;49.150;11.030;2022-11-12T19:04:05;2.30;99.90
10911;DHT22;5508;49.150;11.030;2022-11-12T19:07:06;2.20;99.90
10911;DHT22;5508;49.150;11.030;2022-11-12T19:10:07;2.20;99.90
10911;DHT22;5508;49.150;11.030;2022-11-12T19:13:09;2.10;99.90
10911;DHT22;5508;49.150;11.030;2022-11-12T19:16:13;2.10;99.90
10911;DHT22;5508;49.150;11.030;2022-11-12T19:19:16;2.00;99.90
10911;DHT22;5508;49.150;11.030;2022-11-12T19:22:16;2.00;99.90
10911;DHT22;5508;49.150;11.030;2022-11-12T19:25:17;2.00;99.90
10911;DHT22;5508;49.150;11.030;2022-11-12T19:28:17;2.00;99.90
10911;DHT22;5508;49.150;11.030;2022-11-12T19:31:20;1.90;99.90
10911;DHT22;5508;49.150;11.030;2022-11-12T19:34:22;1.80;99.90
10911;DHT22;5508;49.150;11.030;2022-11-12T19:37:22;1.80;99.90
10911;DHT22;5508;49.150;11.030;2022-11-12T19:40:23;1.80;99.90
10911;DHT22;5508;49.150;11.030;2022-11-12T19:43:23;1.70;99.90
10911;DHT22;5508;49.150;11.030;2022-11-12T19:46:24;1.70;99.90
10911;DHT22;5508;49.150;11.030;2022-11-12T19:49:25;1.60;99.90
10911;DHT22;5508;49.150;11.030;2022-11-12T19:52:25;1.60;99.90
10911;DHT22;5508;49.150;11.030;2022-11-12T19:55:26;1.50;99.90
10911;DHT22;5508;49.150;11.030;2022-11-12T19:58:28;1.50;99.90
10911;DHT22;5508;49.150;11.030;2022-11-12T20:01:31;1.50;99.90
10911;DHT22;5508;49.150;11.030;2022-11-12T20:04:31;1.50;99.90
10911;DHT22;5508;49.150;11.030;2022-11-12T20:07:32;1.60;99.90
10911;DHT22;5508;49.150;11.030;2022-11-12T20:10:32;1.70;99.90
10911;DHT22;5508;49.150;11.030;2022-11-12T20:13:33;1.70;99.90
10911;DHT22;5508;49.150;11.030;2022-11-12T20:16:33;1.60;99.90
10911;DHT22;5508;49.150;11.030;2022-11-12T20:19:34;1.60;99.90
10911;DHT22;5508;49.150;11.030;2022-11-12T20:22:35;1.50;99.90
10911;DHT22;5508;49.150;11.030;2022-11-12T20:25:36;1.60;99.90
10911;DHT22;5508;49.150;11.030;2022-11-12T20:28:37;1.40;99.90
10911;DHT22;5508;49.150;11.030;2022-11-12T20:31:38;1.50;99.90
10911;DHT22;5508;49.150;11.030;2022-11-12T20:34:41;1.40;99.90
10911;DHT22;5508;49.150;11.030;2022-11-12T20:37:41;1.40;99.90
10911;DHT22;5508;49.150;11.030;2022-11-12T20:40:42;1.50;99.90
10911;DHT22;5508;49.150;11.030;2022-11-12T20:43:43;1.40;99.90
10911;DHT22;5508;49.150;11.030;2022-11-12T20:46:43;1.40;99.90
10911;DHT22;5508;49.150;11.030;2022-11-12T20:49:45;1.40;99.90
10911;DHT22;5508;49.150;11.030;2022-11-12T20:52:45;1.30;99.90
10911;DHT22;5508;49.150;11.030;2022-11-12T20:55:46;1.30;99.90
10911;DHT22;5508;49.150;11.030;2022-11-12T20:58:48;1.30;99.90
10911;DHT22;5508;49.150;11.030;2022-11-12T21:01:48;1.30;99.90
10911;DHT22;5508;49.150;11.030;2022-11-12T21:04:49;1.30;99.90